createdAt,value
2022-08-25T00:02:07.088Z,100.00
2022-08-25T00:04:35.886Z,100.00
2022-08-25T00:07:08.084Z,100.00
2022-08-25T00:09:36.396Z,100.00
2022-08-25T00:12:05.578Z,100.00
2022-08-25T00:14:38.064Z,100.00
2022-08-25T00:17:06.900Z,100.00
2022-08-25T00:19:38.501Z,100.00
2022-08-25T00:22:08.020Z,100.00
2022-08-25T00:24:36.056Z,100.00
2022-08-25T00:27:02.909Z,100.00
2022-08-25T00:29:31.415Z,100.00
2022-08-25T00:31:59.591Z,100.00
2022-08-25T00:34:37.406Z,100.00
2022-08-25T00:37:09.390Z,100.00
2022-08-25T00:39:40.351Z,100.00
2022-08-25T00:42:11.842Z,100.00
2022-08-25T00:44:43.838Z,100.00
2022-08-25T00:47:10.848Z,100.00
2022-08-25T00:49:49.604Z,100.00
2022-08-25T00:52:45.557Z,100.00
2022-08-25T00:55:30.950Z,100.00
2022-08-25T00:58:14.128Z,100.00
2022-08-25T01:00:52.339Z,100.00
2022-08-25T01:03:21.385Z,100.00
2022-08-25T01:05:55.032Z,100.00
2022-08-25T01:08:29.190Z,100.00
2022-08-25T01:11:01.696Z,100.00
2022-08-25T01:13:49.609Z,100.00
2022-08-25T01:16:17.574Z,100.00
2022-08-25T01:18:53.461Z,100.00
2022-08-25T01:21:24.614Z,100.00
2022-08-25T01:23:52.987Z,100.00
2022-08-25T01:26:30.600Z,100.00
2022-08-25T01:29:20.750Z,100.00
2022-08-25T01:32:00.462Z,100.00
2022-08-25T01:34:38.458Z,100.00
2022-08-25T01:37:05.639Z,100.00
2022-08-25T01:39:34.729Z,100.00
2022-08-25T01:42:09.091Z,100.00
2022-08-25T01:44:42.577Z,100.00
2022-08-25T01:47:10.871Z,100.00
2022-08-25T01:49:38.055Z,100.00
2022-08-25T01:52:49.767Z,100.00
2022-08-25T01:55:16.780Z,100.00
2022-08-25T01:57:43.467Z,100.00
2022-08-25T02:00:14.043Z,100.00
2022-08-25T02:02:42.800Z,100.00
2022-08-25T02:05:17.735Z,100.00
2022-08-25T02:07:48.630Z,100.00
2022-08-25T02:10:15.470Z,100.00
2022-08-25T02:12:42.281Z,100.00
2022-08-25T02:15:10.207Z,100.00
2022-08-25T02:17:37.442Z,100.00
2022-08-25T02:20:09.613Z,100.00
2022-08-25T02:22:36.359Z,100.00
2022-08-25T02:25:05.706Z,100.00
2022-08-25T02:27:35.445Z,100.00
2022-08-25T02:30:04.843Z,100.00
2022-08-25T02:32:31.585Z,100.00
2022-08-25T02:34:58.306Z,100.00
2022-08-25T02:37:25.098Z,100.00
2022-08-25T02:39:51.902Z,100.00
2022-08-25T02:42:18.712Z,100.00
2022-08-25T02:44:48.630Z,100.00
2022-08-25T02:47:15.685Z,100.00
2022-08-25T02:49:42.775Z,100.00
2022-08-25T02:52:09.728Z,100.00
2022-08-25T02:54:37.250Z,100.00
2022-08-25T02:57:04.448Z,100.00
2022-08-25T02:59:31.330Z,100.00
2022-08-25T03:01:58.577Z,100.00
2022-08-25T03:04:25.411Z,100.00
2022-08-25T03:06:52.155Z,100.00
2022-08-25T03:09:18.986Z,100.00
2022-08-25T03:11:53.220Z,100.00
2022-08-25T03:14:20.034Z,100.00
2022-08-25T03:16:46.777Z,100.00
2022-08-25T03:19:14.012Z,100.00
2022-08-25T03:21:40.731Z,100.00
2022-08-25T03:24:07.724Z,100.00
2022-08-25T03:26:52.784Z,100.00
2022-08-25T03:29:33.670Z,100.00
2022-08-25T03:32:01.256Z,100.00
2022-08-25T03:34:30.586Z,100.00
2022-08-25T03:36:59.429Z,100.00
2022-08-25T03:39:27.598Z,100.00
2022-08-25T03:41:55.044Z,100.00
2022-08-25T03:44:22.902Z,100.00
2022-08-25T03:46:52.804Z,100.00
2022-08-25T03:49:24.329Z,100.00
2022-08-25T03:51:54.938Z,100.00
2022-08-25T03:54:26.225Z,100.00
2022-08-25T03:56:53.496Z,100.00
2022-08-25T03:59:21.188Z,100.00
2022-08-25T04:01:54.034Z,100.00
2022-08-25T04:04:23.547Z,100.00
2022-08-25T04:06:50.799Z,100.00
2022-08-25T04:09:17.514Z,100.00
2022-08-25T04:11:44.209Z,100.00
2022-08-25T04:14:15.883Z,100.00
2022-08-25T04:16:47.021Z,100.00
2022-08-25T04:19:14.448Z,100.00
2022-08-25T04:21:42.760Z,100.00
2022-08-25T04:24:14.901Z,100.00
2022-08-25T04:26:47.970Z,100.00
2022-08-25T04:29:23.558Z,100.00
2022-08-25T04:31:53.807Z,100.00
2022-08-25T04:34:29.605Z,100.00
2022-08-25T04:36:57.806Z,100.00
2022-08-25T04:39:24.797Z,100.00
2022-08-25T04:41:53.902Z,100.00
2022-08-25T04:44:20.652Z,100.00
2022-08-25T04:46:47.512Z,100.00
2022-08-25T04:49:15.053Z,100.00
2022-08-25T04:51:43.707Z,100.00
2022-08-25T04:54:21.940Z,100.00
2022-08-25T04:56:54.197Z,100.00
2022-08-25T04:59:23.388Z,100.00
2022-08-25T05:01:57.363Z,100.00
2022-08-25T05:04:28.759Z,100.00
2022-08-25T05:06:57.915Z,100.00
2022-08-25T05:09:26.771Z,100.00
2022-08-25T05:11:54.818Z,100.00
2022-08-25T05:14:26.558Z,100.00
2022-08-25T05:16:55.657Z,100.00
2022-08-25T05:19:24.545Z,100.00
2022-08-25T05:21:52.806Z,100.00
2022-08-25T05:24:22.182Z,100.00
2022-08-25T05:26:49.583Z,100.00
2022-08-25T05:29:19.542Z,100.00
2022-08-25T05:31:50.877Z,100.00
2022-08-25T05:34:19.850Z,100.00
2022-08-25T05:36:49.362Z,100.00
2022-08-25T05:39:18.680Z,100.00
2022-08-25T05:41:51.037Z,100.00
2022-08-25T05:44:20.962Z,100.00
2022-08-25T05:46:48.002Z,100.00
2022-08-25T05:49:17.414Z,100.00
2022-08-25T05:51:45.479Z,100.00
2022-08-25T05:54:12.195Z,100.00
2022-08-25T05:56:40.020Z,100.00
2022-08-25T05:59:09.467Z,100.00
2022-08-25T06:01:57.992Z,100.00
2022-08-25T06:04:24.820Z,100.00
2022-08-25T06:06:54.751Z,100.00
2022-08-25T06:09:24.234Z,100.00
2022-08-25T06:11:54.958Z,100.00
2022-08-25T06:14:24.338Z,100.00
2022-08-25T06:16:52.564Z,100.00
2022-08-25T06:19:19.563Z,100.00
2022-08-25T06:21:46.338Z,100.00
2022-08-25T06:24:15.844Z,100.00
2022-08-25T06:26:44.066Z,100.00
2022-08-25T06:29:10.901Z,100.00
2022-08-25T06:31:37.695Z,100.00
2022-08-25T06:34:04.477Z,100.00
2022-08-25T06:36:31.256Z,100.00
2022-08-25T06:38:58.014Z,100.00
2022-08-25T06:41:36.543Z,100.00
2022-08-25T06:44:06.017Z,100.00
2022-08-25T06:46:36.448Z,100.00
2022-08-25T06:49:06.878Z,100.00
2022-08-25T06:51:39.394Z,100.00
2022-08-25T06:54:10.172Z,100.00
2022-08-25T06:56:40.687Z,100.00
2022-08-25T06:59:10.788Z,100.00
2022-08-25T07:01:37.779Z,100.00
2022-08-25T07:04:11.778Z,100.00
2022-08-25T07:06:42.193Z,100.00
2022-08-25T07:09:12.323Z,100.00
2022-08-25T07:11:45.142Z,100.00
2022-08-25T07:14:17.338Z,100.00
2022-08-25T07:16:49.345Z,100.00
2022-08-25T07:19:20.829Z,100.00
2022-08-25T07:21:53.088Z,100.00
2022-08-25T07:24:22.538Z,100.00
2022-08-25T07:26:50.421Z,100.00
2022-08-25T07:29:32.322Z,100.00
2022-08-25T07:32:02.600Z,100.00
2022-08-25T07:34:52.208Z,100.00
2022-08-25T07:37:47.492Z,100.00
2022-08-25T07:40:21.291Z,100.00
2022-08-25T07:42:56.780Z,100.00
2022-08-25T07:45:32.570Z,100.00
2022-08-25T07:48:09.543Z,100.00
2022-08-25T07:50:45.361Z,100.00
2022-08-25T07:53:15.706Z,100.00
2022-08-25T07:55:47.275Z,100.00
2022-08-25T07:58:15.252Z,100.00
2022-08-25T08:00:42.307Z,100.00
2022-08-25T08:03:19.953Z,100.00
2022-08-25T08:05:58.042Z,100.00
2022-08-25T08:08:24.621Z,100.00
2022-08-25T08:11:04.264Z,100.00
2022-08-25T08:13:36.820Z,100.00
2022-08-25T08:16:14.295Z,100.00
2022-08-25T08:18:44.046Z,100.00
2022-08-25T08:21:22.495Z,100.00
2022-08-25T08:23:56.652Z,100.00
2022-08-25T08:26:48.322Z,100.00
2022-08-25T08:29:16.319Z,100.00
2022-08-25T08:31:44.120Z,100.00
2022-08-25T08:34:16.984Z,100.00
2022-08-25T08:36:46.649Z,100.00
2022-08-25T08:39:13.315Z,100.00
2022-08-25T08:42:47.219Z,100.00
2022-08-25T08:45:40.175Z,100.00
2022-08-25T08:48:52.019Z,98.60
2022-08-25T08:51:54.868Z,98.14
2022-08-25T08:54:31.144Z,93.93
2022-08-25T08:57:29.268Z,88.69
2022-08-25T09:00:05.327Z,87.36
2022-08-25T09:02:58.580Z,85.64
2022-08-25T09:05:41.019Z,86.89
2022-08-25T09:08:15.694Z,87.80
2022-08-25T09:11:46.924Z,89.52
2022-08-25T09:15:13.293Z,86.07
2022-08-25T09:18:03.129Z,86.33
2022-08-25T09:21:40.232Z,90.03
2022-08-25T09:24:48.420Z,86.65
2022-08-25T09:27:47.173Z,88.50
2022-08-25T09:30:21.730Z,87.11
2022-08-25T09:33:03.903Z,89.66
2022-08-25T09:35:40.787Z,90.64
2022-08-25T09:38:13.111Z,93.88
2022-08-25T09:40:54.229Z,92.12
2022-08-25T09:43:42.089Z,90.78
2022-08-25T09:46:23.555Z,92.31
2022-08-25T09:49:10.562Z,92.15
2022-08-25T09:51:43.362Z,91.05
2022-08-25T09:54:15.076Z,91.39
2022-08-25T09:57:00.517Z,92.95
2022-08-25T09:59:37.027Z,93.80
2022-08-25T10:02:28.787Z,93.86
2022-08-25T10:04:57.094Z,95.15
2022-08-25T10:07:47.972Z,93.14
2022-08-25T10:10:38.257Z,91.11
2022-08-25T10:13:22.815Z,94.35
2022-08-25T10:16:18.046Z,90.49
2022-08-25T10:19:21.797Z,90.21
2022-08-25T10:22:20.253Z,85.39
2022-08-25T10:24:47.233Z,82.99
2022-08-25T10:28:27.207Z,84.22
2022-08-25T10:31:22.077Z,85.71
2022-08-25T10:34:01.825Z,85.18
2022-08-25T10:37:12.295Z,81.57
2022-08-25T10:39:55.734Z,84.76
2022-08-25T10:42:42.726Z,87.88
2022-08-25T10:45:45.353Z,87.31
2022-08-25T10:48:48.693Z,83.22
2022-08-25T10:51:42.327Z,80.73
2022-08-25T10:55:00.634Z,77.01
2022-08-25T10:57:55.017Z,81.39
2022-08-25T11:00:37.480Z,85.08
2022-08-25T11:03:45.588Z,84.03
2022-08-25T11:06:50.336Z,88.00
2022-08-25T11:09:29.986Z,83.64
2022-08-25T11:12:08.717Z,78.24
2022-08-25T11:15:02.077Z,75.93
2022-08-25T11:17:53.118Z,79.22
2022-08-25T11:20:34.201Z,76.60
2022-08-25T11:23:46.774Z,78.76
2022-08-25T11:26:31.898Z,81.35
2022-08-25T11:29:18.623Z,82.81
2022-08-25T11:31:54.065Z,83.66
2022-08-25T11:34:22.851Z,85.56
2022-08-25T11:37:12.508Z,87.07
2022-08-25T11:40:38.403Z,82.93
2022-08-25T11:43:37.777Z,79.07
2022-08-25T11:46:58.060Z,73.72
2022-08-25T11:50:02.196Z,74.49
2022-08-25T11:52:46.815Z,76.32
2022-08-25T11:55:51.049Z,73.29
2022-08-25T11:58:50.815Z,76.06
2022-08-25T12:01:39.504Z,72.18
2022-08-25T12:04:44.269Z,76.13
2022-08-25T12:08:13.424Z,76.08
2022-08-25T12:11:11.446Z,70.54
2022-08-25T12:13:45.905Z,77.01
2022-08-25T12:16:56.419Z,78.52
2022-08-25T12:19:35.318Z,83.22
2022-08-25T12:22:03.239Z,84.88
2022-08-25T12:24:48.246Z,83.23
2022-08-25T12:27:50.136Z,85.23
2022-08-25T12:30:31.646Z,81.68
2022-08-25T12:33:16.588Z,78.41
2022-08-25T12:36:07.415Z,75.32
2022-08-25T12:38:52.076Z,79.41
2022-08-25T12:41:31.097Z,83.16
2022-08-25T12:44:43.938Z,81.07
2022-08-25T12:47:28.263Z,79.56
2022-08-25T12:50:41.172Z,81.72
2022-08-25T12:53:35.066Z,81.89
2022-08-25T12:56:27.533Z,88.48
2022-08-25T12:59:16.001Z,88.23
2022-08-25T13:01:56.883Z,90.00
2022-08-25T13:05:11.454Z,90.74
2022-08-25T13:08:36.992Z,88.44
2022-08-25T13:11:17.564Z,85.89
2022-08-25T13:14:21.314Z,86.89
2022-08-25T13:17:01.066Z,89.41
2022-08-25T13:19:34.764Z,91.50
2022-08-25T13:22:17.709Z,89.80
2022-08-25T13:24:50.845Z,89.76
2022-08-25T13:27:37.021Z,90.63
2022-08-25T13:30:05.901Z,91.69
2022-08-25T13:32:38.887Z,91.53
2022-08-25T13:35:20.160Z,87.57
2022-08-25T13:37:48.349Z,88.42
2022-08-25T13:40:19.933Z,87.69
2022-08-25T13:43:02.979Z,87.52
2022-08-25T13:45:41.177Z,86.84
2022-08-25T13:48:20.936Z,92.55
2022-08-25T13:50:51.914Z,83.72
2022-08-25T13:53:30.546Z,82.76
2022-08-25T13:56:03.196Z,83.95
2022-08-25T13:58:44.408Z,86.51
2022-08-25T14:01:47.726Z,86.33
2022-08-25T14:04:32.868Z,86.10
2022-08-25T14:07:22.393Z,85.81
2022-08-25T14:10:01.745Z,84.63
2022-08-25T14:12:49.769Z,87.80
2022-08-25T14:15:22.315Z,90.81
2022-08-25T14:18:26.962Z,88.42
2022-08-25T14:20:57.297Z,88.18
2022-08-25T14:23:30.574Z,85.79
2022-08-25T14:26:01.418Z,87.52
2022-08-25T14:28:31.899Z,87.55
2022-08-25T14:31:11.341Z,85.98
2022-08-25T14:33:56.763Z,89.07
2022-08-25T14:36:23.735Z,88.65
2022-08-25T14:38:54.577Z,87.70
2022-08-25T14:41:26.738Z,88.54
2022-08-25T14:43:53.870Z,89.41
2022-08-25T14:46:26.839Z,87.10
2022-08-25T14:49:03.177Z,86.10
2022-08-25T14:51:33.515Z,88.89
2022-08-25T14:54:07.305Z,85.80
2022-08-25T14:56:43.060Z,82.83
2022-08-25T14:59:10.202Z,80.46
2022-08-25T15:01:37.318Z,79.53
2022-08-25T15:04:13.066Z,78.63
2022-08-25T15:06:44.793Z,77.44
2022-08-25T15:09:16.653Z,73.77
2022-08-25T15:11:51.781Z,73.94
2022-08-25T15:14:28.539Z,75.22
2022-08-25T15:16:57.693Z,74.40
2022-08-25T15:19:27.567Z,72.51
2022-08-25T15:21:57.998Z,77.70
2022-08-25T15:24:28.290Z,74.14
2022-08-25T15:27:01.700Z,69.06
2022-08-25T15:29:31.583Z,69.84
2022-08-25T15:32:00.804Z,75.31
2022-08-25T15:34:29.155Z,78.61
2022-08-25T15:36:59.734Z,76.93
2022-08-25T15:39:27.862Z,79.86
2022-08-25T15:41:54.920Z,81.00
2022-08-25T15:44:29.054Z,81.40
2022-08-25T15:46:56.460Z,80.85
2022-08-25T15:49:25.329Z,80.50
2022-08-25T15:51:54.717Z,80.12
2022-08-25T15:54:26.794Z,82.86
2022-08-25T15:56:56.678Z,85.71
2022-08-25T15:59:25.321Z,85.82
2022-08-25T16:01:53.794Z,87.14
2022-08-25T16:04:24.628Z,86.07
2022-08-25T16:06:52.964Z,85.69
2022-08-25T16:09:23.008Z,84.38
2022-08-25T16:11:56.258Z,86.99
2022-08-25T16:14:25.573Z,84.92
2022-08-25T16:16:58.531Z,86.96
2022-08-25T16:19:29.265Z,88.76
2022-08-25T16:21:57.432Z,89.56
2022-08-25T16:24:25.193Z,88.91
2022-08-25T16:26:53.394Z,89.55
2022-08-25T16:29:22.844Z,90.85
2022-08-25T16:31:53.262Z,90.23
2022-08-25T16:34:24.743Z,89.89
2022-08-25T16:36:55.590Z,91.29
2022-08-25T16:39:24.114Z,91.27
2022-08-25T16:41:52.599Z,91.19
2022-08-25T16:44:22.736Z,90.98
2022-08-25T16:46:54.315Z,94.67
2022-08-25T16:49:24.307Z,95.27
2022-08-25T16:51:57.152Z,96.73
2022-08-25T16:54:43.314Z,96.30
2022-08-25T16:57:10.033Z,96.91
2022-08-25T16:59:36.790Z,97.29
2022-08-25T17:02:04.270Z,95.92
2022-08-25T17:04:32.112Z,94.70
2022-08-25T17:06:59.671Z,95.03
2022-08-25T17:09:26.458Z,95.45
2022-08-25T17:11:56.682Z,96.66
2022-08-25T17:14:24.411Z,96.69
2022-08-25T17:16:54.973Z,96.36
2022-08-25T17:19:24.996Z,97.60
2022-08-25T17:21:54.428Z,100.00
2022-08-25T17:24:22.276Z,100.00
2022-08-25T17:26:56.418Z,100.00
2022-08-25T17:29:23.123Z,100.00
2022-08-25T17:31:51.043Z,100.00
2022-08-25T17:34:23.018Z,100.00
2022-08-25T17:36:52.054Z,100.00
2022-08-25T17:39:22.173Z,100.00
2022-08-25T17:41:52.580Z,100.00
2022-08-25T17:44:20.648Z,100.00
2022-08-25T17:46:48.306Z,100.00
2022-08-25T17:49:17.243Z,100.00
2022-08-25T17:51:45.126Z,100.00
2022-08-25T17:54:12.525Z,100.00
2022-08-25T17:56:39.384Z,100.00
2022-08-25T17:59:06.534Z,100.00
2022-08-25T18:01:40.176Z,100.00
2022-08-25T18:04:15.643Z,100.00
2022-08-25T18:06:47.478Z,100.00
2022-08-25T18:09:17.365Z,100.00
2022-08-25T18:11:46.181Z,100.00
2022-08-25T18:14:16.491Z,100.00
2022-08-25T18:16:43.311Z,100.00
2022-08-25T18:19:12.325Z,100.00
2022-08-25T18:21:41.617Z,100.00
2022-08-25T18:24:13.491Z,100.00
2022-08-25T18:26:40.951Z,100.00
2022-08-25T18:29:13.252Z,100.00
2022-08-25T18:34:23.963Z,100.00
2022-08-25T18:36:51.911Z,100.00
2022-08-25T18:39:38.133Z,100.00
2022-08-25T18:42:06.912Z,100.00
2022-08-25T18:52:36.208Z,100.00
2022-08-25T18:55:04.796Z,100.00
2022-08-25T18:57:31.531Z,100.00
2022-08-25T18:59:58.383Z,100.00
2022-08-25T19:02:25.382Z,100.00
2022-08-25T19:04:52.823Z,100.00
2022-08-25T19:07:20.300Z,100.00
2022-08-25T19:09:52.361Z,100.00
2022-08-25T19:12:22.742Z,100.00
2022-08-25T19:14:49.814Z,100.00
2022-08-25T19:17:17.308Z,100.00
2022-08-25T19:19:44.623Z,100.00
2022-08-25T19:22:31.839Z,100.00
2022-08-25T19:24:59.691Z,100.00
2022-08-25T19:27:26.988Z,100.00
2022-08-25T19:29:53.921Z,100.00
2022-08-25T19:35:03.957Z,100.00
2022-08-25T19:37:31.333Z,100.00
2022-08-25T19:39:58.880Z,100.00
2022-08-25T19:42:35.311Z,100.00
2022-08-25T19:45:11.367Z,100.00
2022-08-25T19:47:39.903Z,100.00
2022-08-25T19:50:09.997Z,100.00
2022-08-25T19:52:41.958Z,100.00
2022-08-25T19:55:10.224Z,100.00
2022-08-25T19:57:42.664Z,100.00
2022-08-25T20:05:44.972Z,100.00
2022-08-25T20:10:55.107Z,100.00
2022-08-25T20:13:23.525Z,100.00
2022-08-25T20:21:12.003Z,100.00
2022-08-25T20:23:57.210Z,100.00
2022-08-25T20:26:24.010Z,100.00
2022-08-25T20:28:54.355Z,100.00
2022-08-25T20:31:21.474Z,100.00
2022-08-25T20:33:48.210Z,100.00
2022-08-25T20:36:16.842Z,100.00
2022-08-25T20:38:44.717Z,100.00
2022-08-25T20:41:14.493Z,100.00
2022-08-25T20:43:41.696Z,100.00
2022-08-25T20:46:17.255Z,100.00
2022-08-25T20:48:51.757Z,100.00
2022-08-25T20:51:21.095Z,100.00
2022-08-25T20:53:50.233Z,100.00
2022-08-25T20:56:20.352Z,100.00
2022-08-25T20:58:48.669Z,100.00
2022-08-25T21:01:41.535Z,100.00
2022-08-25T21:04:14.624Z,100.00
2022-08-25T21:06:43.438Z,100.00
2022-08-25T21:09:16.057Z,100.00
2022-08-25T21:11:44.992Z,100.00
2022-08-25T21:14:14.260Z,100.00
2022-08-25T21:16:46.978Z,100.00
2022-08-25T21:19:26.465Z,100.00
2022-08-25T21:21:59.867Z,100.00
2022-08-25T21:24:28.986Z,100.00
2022-08-25T21:26:59.708Z,100.00
2022-08-25T21:29:31.721Z,100.00
2022-08-25T21:31:58.888Z,100.00
2022-08-25T21:34:28.919Z,100.00
2022-08-25T21:37:00.201Z,100.00
2022-08-25T21:39:29.709Z,100.00
2022-08-25T21:42:00.495Z,100.00
2022-08-25T21:44:29.851Z,100.00
2022-08-25T21:46:57.245Z,100.00
2022-08-25T21:49:25.601Z,100.00
2022-08-25T21:52:00.648Z,100.00
2022-08-25T21:54:29.786Z,100.00
2022-08-25T21:57:06.584Z,100.00
2022-08-25T21:59:41.199Z,100.00
2022-08-25T22:02:13.079Z,100.00
2022-08-25T22:04:42.220Z,100.00
2022-08-25T22:07:10.922Z,100.00
2022-08-25T22:09:39.049Z,100.00
2022-08-25T22:12:06.899Z,100.00
2022-08-25T22:14:35.307Z,100.00
2022-08-25T22:17:02.667Z,100.00
2022-08-25T22:19:29.857Z,100.00
2022-08-25T22:22:01.348Z,100.00
2022-08-25T22:24:28.631Z,100.00
2022-08-25T22:26:56.805Z,100.00
2022-08-25T22:29:25.784Z,100.00
2022-08-25T22:32:02.231Z,100.00
2022-08-25T22:34:34.240Z,100.00
2022-08-25T22:37:04.751Z,100.00
2022-08-25T22:39:34.194Z,100.00
2022-08-25T22:42:02.757Z,100.00
2022-08-25T22:44:29.975Z,100.00
2022-08-25T22:46:57.127Z,100.00
2022-08-25T22:49:23.799Z,100.00
2022-08-25T22:51:50.813Z,100.00
2022-08-25T22:54:17.996Z,100.00
2022-08-25T22:56:44.860Z,100.00
2022-08-25T22:59:14.500Z,100.00
2022-08-25T23:01:45.101Z,100.00
2022-08-25T23:04:14.664Z,100.00
2022-08-25T23:06:42.339Z,100.00
2022-08-25T23:09:10.869Z,100.00
2022-08-25T23:11:39.394Z,100.00
2022-08-25T23:14:10.869Z,100.00
2022-08-25T23:16:41.733Z,100.00
2022-08-25T23:19:13.574Z,100.00
2022-08-25T23:22:02.056Z,100.00
2022-08-25T23:24:31.559Z,100.00
2022-08-25T23:27:01.547Z,100.00
2022-08-25T23:29:30.063Z,100.00
2022-08-25T23:31:58.599Z,100.00
2022-08-25T23:34:28.521Z,100.00
2022-08-25T23:36:56.982Z,100.00
2022-08-25T23:39:25.286Z,100.00
2022-08-25T23:41:52.819Z,100.00
2022-08-25T23:44:23.176Z,100.00
2022-08-25T23:46:53.510Z,100.00
2022-08-25T23:49:23.717Z,100.00
2022-08-25T23:51:53.244Z,100.00
2022-08-25T23:54:21.463Z,100.00
2022-08-25T23:56:51.572Z,100.00
2022-08-25T23:59:24.140Z,100.00
